createdAt,value
2022-09-03T00:00:59.798Z,85.65
2022-09-03T00:03:40.090Z,85.71
2022-09-03T00:06:20.682Z,85.62
2022-09-03T00:09:23.410Z,85.47
2022-09-03T00:12:12.242Z,85.32
2022-09-03T00:14:50.151Z,85.07
2022-09-03T00:17:25.110Z,85.08
2022-09-03T00:20:09.851Z,84.83
2022-09-03T00:22:45.688Z,84.83
2022-09-03T00:25:22.016Z,84.58
2022-09-03T00:27:59.787Z,84.64
2022-09-03T00:30:31.477Z,84.66
2022-09-03T00:33:13.114Z,84.71
2022-09-03T00:35:58.639Z,84.58
2022-09-03T00:38:30.008Z,84.38
2022-09-03T00:41:12.682Z,84.23
2022-09-03T00:44:00.985Z,84.28
2022-09-03T00:46:54.158Z,84.09
2022-09-03T00:50:06.257Z,84.22
2022-09-03T00:52:48.199Z,84.24
2022-09-03T00:55:59.421Z,84.00
2022-09-03T00:59:08.160Z,83.83
2022-09-03T01:01:41.667Z,83.58
2022-09-03T01:04:28.846Z,83.71
2022-09-03T01:07:21.204Z,83.84
2022-09-03T01:10:29.623Z,83.77
2022-09-03T01:13:17.575Z,83.66
2022-09-03T01:16:29.188Z,83.71
2022-09-03T01:19:33.580Z,83.25
2022-09-03T01:22:29.472Z,83.36
2022-09-03T01:25:20.692Z,83.48
2022-09-03T01:28:25.357Z,83.83
2022-09-03T01:31:26.456Z,83.57
2022-09-03T01:34:22.526Z,83.48
2022-09-03T01:37:18.264Z,83.50
2022-09-03T01:43:06.516Z,83.56
2022-09-03T01:46:02.423Z,83.07
2022-09-03T01:48:48.684Z,82.75
2022-09-03T01:51:25.834Z,82.62
2022-09-03T01:57:35.638Z,82.76
2022-09-03T02:00:12.709Z,82.52
2022-09-03T02:02:45.693Z,82.82
2022-09-03T02:05:28.479Z,82.65
2022-09-03T02:08:03.880Z,82.23
2022-09-03T02:10:45.438Z,82.73
2022-09-03T02:13:34.335Z,82.39
2022-09-03T02:16:13.454Z,82.83
2022-09-03T02:18:48.827Z,82.48
2022-09-03T02:21:22.704Z,83.04
2022-09-03T02:23:53.465Z,82.80
2022-09-03T02:26:26.991Z,82.91
2022-09-03T02:28:58.441Z,82.35
2022-09-03T02:31:30.339Z,82.56
2022-09-03T02:34:01.247Z,82.69
2022-09-03T02:36:36.738Z,82.16
2022-09-03T02:39:07.580Z,82.76
2022-09-03T02:41:38.195Z,82.40
2022-09-03T02:44:30.489Z,82.35
2022-09-03T02:47:02.268Z,82.06
2022-09-03T02:49:33.420Z,81.95
2022-09-03T02:52:12.324Z,82.13
2022-09-03T02:54:43.846Z,80.82
2022-09-03T02:57:17.597Z,81.50
2022-09-03T02:59:57.631Z,81.46
2022-09-03T03:02:27.895Z,81.17
2022-09-03T03:04:58.473Z,81.12
2022-09-03T03:07:30.517Z,81.19
2022-09-03T03:10:02.095Z,79.79
2022-09-03T03:12:32.999Z,79.70
2022-09-03T08:56:44.709Z,73.55
2022-09-03T08:59:15.434Z,73.55
2022-09-03T09:02:05.955Z,73.72
2022-09-03T09:05:06.075Z,73.21
2022-09-03T09:07:53.514Z,72.40
2022-09-03T09:11:17.045Z,72.69
2022-09-03T09:14:00.796Z,72.85
2022-09-03T09:16:38.201Z,72.78
2022-09-03T09:20:10.856Z,72.85
2022-09-03T09:22:52.015Z,73.68
2022-09-03T09:25:26.023Z,74.49
2022-09-03T09:28:15.771Z,74.63
2022-09-03T09:30:50.180Z,74.41
2022-09-03T09:33:22.955Z,74.06
2022-09-03T09:35:53.722Z,74.76
2022-09-03T09:38:35.889Z,74.89
2022-09-03T09:41:24.199Z,74.96
2022-09-03T09:44:05.600Z,75.13
2022-09-03T09:46:42.220Z,74.97
2022-09-03T09:49:34.488Z,75.18
2022-09-03T09:52:14.722Z,74.70
2022-09-03T09:54:48.541Z,74.95
2022-09-03T09:57:25.369Z,75.39
2022-09-03T10:00:16.167Z,75.27
2022-09-03T10:02:57.585Z,75.42
2022-09-03T10:05:30.948Z,75.46
2022-09-03T10:08:07.970Z,75.75
2022-09-03T10:10:47.566Z,75.89
2022-09-03T10:13:25.223Z,75.72
2022-09-03T10:16:06.617Z,75.88
2022-09-03T10:18:42.753Z,75.64
2022-09-03T10:21:19.161Z,75.73
2022-09-03T10:24:20.239Z,75.99
2022-09-03T10:26:50.943Z,76.04
2022-09-03T10:29:32.852Z,75.96
2022-09-03T10:32:37.853Z,75.48
2022-09-03T10:35:30.960Z,75.49
2022-09-03T10:38:36.843Z,75.11
2022-09-03T10:41:31.536Z,74.98
2022-09-03T10:44:13.853Z,74.85
2022-09-03T10:47:15.700Z,74.86
2022-09-03T10:50:12.904Z,74.81
2022-09-03T10:53:10.355Z,74.23
2022-09-03T10:56:12.652Z,74.68
2022-09-03T10:59:15.780Z,74.52
2022-09-03T11:02:05.127Z,74.59
2022-09-03T11:05:02.854Z,74.17
2022-09-03T11:07:51.651Z,73.82
2022-09-03T11:10:52.873Z,73.43
2022-09-03T11:13:49.399Z,72.49
2022-09-03T11:16:34.321Z,71.74
2022-09-03T11:19:10.822Z,71.75
2022-09-03T11:21:44.644Z,71.72
2022-09-03T11:24:25.008Z,71.15
2022-09-03T11:27:05.154Z,68.50
2022-09-03T11:29:55.772Z,69.59
2022-09-03T11:32:34.626Z,69.70
2022-09-03T11:35:16.443Z,67.55
2022-09-03T11:38:23.815Z,66.75
2022-09-03T11:41:18.304Z,68.06
2022-09-03T11:43:49.629Z,68.27
2022-09-03T11:46:26.472Z,67.51
2022-09-03T11:49:14.755Z,67.34
2022-09-03T11:51:46.722Z,66.77
2022-09-03T11:54:26.500Z,66.64
2022-09-03T11:57:15.914Z,67.60
2022-09-03T11:59:47.710Z,68.22
2022-09-03T12:02:43.406Z,67.98
2022-09-03T12:05:38.404Z,68.04
2022-09-03T12:08:23.932Z,69.05
2022-09-03T12:11:12.509Z,68.13
2022-09-03T12:14:17.824Z,69.09
2022-09-03T12:17:05.684Z,68.82
2022-09-03T12:19:42.849Z,68.32
2022-09-03T12:22:18.457Z,67.63
2022-09-03T12:24:49.359Z,67.60
2022-09-03T12:27:27.379Z,67.79
2022-09-03T12:30:02.724Z,67.79
2022-09-03T12:32:39.764Z,68.06
2022-09-03T12:38:13.813Z,69.07
2022-09-03T12:43:39.149Z,70.32
2022-09-03T12:46:18.226Z,69.33
2022-09-03T12:51:53.622Z,69.25
2022-09-03T12:54:27.639Z,70.00
2022-09-03T12:57:02.434Z,70.01
2022-09-03T12:59:38.360Z,70.32
2022-09-03T13:02:23.520Z,69.71
2022-09-03T13:04:55.439Z,69.50
2022-09-03T13:07:50.356Z,70.13
2022-09-03T13:10:33.799Z,68.83
2022-09-03T13:13:10.474Z,69.31
2022-09-03T13:15:41.293Z,68.85
2022-09-03T13:18:27.064Z,69.24
2022-09-03T13:21:14.937Z,69.64
2022-09-03T13:24:09.057Z,69.63
2022-09-03T13:26:47.970Z,69.74
2022-09-03T13:29:52.739Z,69.90
2022-09-03T13:32:37.005Z,69.85
2022-09-03T13:35:35.192Z,69.62
2022-09-03T13:38:41.199Z,69.57
2022-09-03T13:41:23.935Z,69.51
2022-09-03T13:44:12.137Z,70.11
2022-09-03T13:46:52.103Z,70.21
2022-09-03T13:50:13.132Z,70.53
2022-09-03T13:52:46.813Z,70.66
2022-09-03T13:55:36.115Z,70.82
2022-09-03T13:58:22.325Z,71.02
2022-09-03T14:01:05.716Z,71.29
2022-09-03T14:03:51.507Z,71.26
2022-09-03T14:06:50.408Z,70.84
2022-09-03T14:09:27.100Z,71.12
2022-09-03T14:12:10.835Z,71.65
2022-09-03T14:15:08.487Z,71.18
2022-09-03T14:18:00.821Z,71.86
2022-09-03T14:20:57.673Z,71.65
2022-09-03T14:24:05.742Z,71.98
2022-09-03T14:26:40.861Z,72.25
2022-09-03T14:29:20.079Z,72.47
2022-09-03T14:32:08.802Z,73.57
2022-09-03T14:34:51.481Z,74.58
2022-09-03T14:37:46.168Z,75.41
2022-09-03T14:40:16.940Z,75.36
2022-09-03T14:43:08.388Z,75.42
2022-09-03T14:45:59.284Z,74.88
2022-09-03T14:48:40.951Z,74.83
2022-09-03T14:52:01.428Z,74.84
2022-09-03T14:55:09.742Z,74.44
2022-09-03T14:57:52.667Z,74.65
2022-09-03T15:01:01.424Z,74.64
2022-09-03T15:03:50.940Z,74.59
2022-09-03T15:06:58.657Z,75.05
2022-09-03T15:09:34.212Z,75.04
2022-09-03T15:12:13.340Z,74.73
2022-09-03T15:15:22.724Z,75.26
2022-09-03T15:18:24.192Z,75.09
2022-09-03T15:21:22.727Z,75.14
2022-09-03T15:24:16.863Z,75.20
2022-09-03T15:27:10.758Z,75.20
2022-09-03T15:30:04.546Z,75.67
2022-09-03T15:32:59.632Z,75.34
2022-09-03T15:35:54.853Z,75.38
2022-09-03T15:38:31.492Z,76.22
2022-09-03T15:41:11.041Z,76.09
2022-09-03T15:43:43.398Z,76.30
2022-09-03T15:46:32.947Z,76.19
2022-09-03T15:49:21.047Z,76.29
2022-09-03T15:52:10.114Z,76.43
2022-09-03T15:54:59.814Z,76.33
2022-09-03T15:57:41.905Z,76.33
2022-09-03T16:00:22.558Z,76.36
2022-09-03T16:03:11.692Z,76.41
2022-09-03T16:05:49.657Z,76.55
2022-09-03T16:08:45.167Z,76.43
2022-09-03T16:11:53.849Z,76.96
2022-09-03T16:14:34.402Z,76.30
2022-09-03T16:17:27.560Z,76.45
2022-09-03T16:20:04.351Z,76.98
2022-09-03T16:22:50.067Z,76.94
2022-09-03T16:25:26.324Z,77.29
2022-09-03T16:28:11.449Z,77.25
2022-09-03T16:30:43.509Z,77.05
2022-09-03T16:33:21.680Z,77.18
2022-09-03T16:36:30.286Z,77.25
2022-09-03T16:39:31.615Z,77.40
2022-09-03T16:42:25.067Z,77.28
2022-09-03T16:45:02.595Z,77.31
2022-09-03T16:47:40.132Z,77.27
2022-09-03T16:50:27.285Z,77.13
2022-09-03T16:53:18.976Z,77.49
2022-09-03T16:56:19.414Z,77.69
2022-09-03T16:59:14.901Z,77.41
2022-09-03T17:01:57.954Z,77.95
2022-09-03T17:04:34.847Z,77.40
2022-09-03T17:07:41.047Z,77.66
2022-09-03T17:10:27.562Z,77.77
2022-09-03T17:13:16.731Z,77.68
2022-09-03T17:16:06.767Z,77.88
2022-09-03T17:18:40.224Z,77.72
2022-09-03T17:21:19.732Z,78.10
2022-09-03T17:24:02.320Z,78.02
2022-09-03T17:26:35.766Z,78.06
2022-09-03T17:29:25.428Z,78.04
2022-09-03T17:32:23.770Z,78.49
2022-09-03T17:35:24.690Z,78.54
2022-09-03T17:38:17.867Z,78.46
2022-09-03T17:41:18.142Z,78.76
2022-09-03T17:44:27.171Z,78.68
2022-09-03T17:47:22.358Z,79.18
2022-09-03T17:50:00.823Z,79.57
2022-09-03T17:52:52.621Z,79.23
2022-09-03T17:55:40.347Z,79.77
2022-09-03T17:58:18.113Z,80.12
2022-09-03T18:01:18.414Z,80.19
2022-09-03T18:04:17.558Z,79.90
2022-09-03T18:06:54.577Z,80.49
2022-09-03T18:09:43.777Z,79.91
2022-09-03T18:12:41.650Z,80.34
2022-09-03T18:15:16.640Z,80.25
2022-09-03T18:18:02.466Z,80.42
2022-09-03T18:21:22.225Z,80.32
2022-09-03T18:24:16.228Z,80.27
2022-09-03T18:27:19.675Z,80.50
2022-09-03T18:30:24.937Z,80.33
2022-09-03T18:33:13.931Z,80.30
2022-09-03T18:36:05.766Z,80.41
2022-09-03T18:38:56.944Z,80.37
2022-09-03T18:42:20.019Z,80.66
2022-09-03T18:45:23.575Z,80.40
2022-09-03T18:48:42.986Z,80.60
2022-09-03T18:51:52.495Z,80.94
2022-09-03T18:55:07.496Z,80.62
2022-09-03T18:58:28.980Z,80.79
2022-09-03T19:01:42.863Z,80.65
2022-09-03T19:05:05.407Z,80.93
2022-09-03T19:08:13.312Z,80.83
2022-09-03T19:11:37.663Z,80.76
2022-09-03T19:14:50.529Z,81.11
2022-09-03T19:17:57.815Z,81.01
2022-09-03T19:20:57.758Z,81.24
2022-09-03T19:23:46.924Z,81.09
2022-09-03T19:27:37.482Z,80.82
2022-09-03T19:30:31.491Z,80.71
2022-09-03T19:33:36.936Z,81.14
2022-09-03T19:36:38.121Z,80.97
2022-09-03T19:39:38.721Z,81.29
2022-09-03T19:43:01.443Z,81.23
2022-09-03T19:46:04.848Z,81.24
2022-09-03T19:49:14.581Z,81.25
2022-09-03T19:52:14.885Z,81.33
2022-09-03T19:55:03.927Z,81.12
2022-09-03T19:57:53.238Z,81.08
2022-09-03T20:00:45.049Z,81.34
2022-09-03T20:03:35.567Z,80.89
2022-09-03T20:06:29.138Z,81.04
2022-09-03T20:09:26.897Z,81.20
2022-09-03T20:12:07.242Z,81.27
2022-09-03T20:14:41.024Z,81.11
2022-09-03T20:17:16.529Z,81.35
2022-09-03T20:19:56.275Z,81.37
2022-09-03T20:22:47.321Z,80.92
2022-09-03T20:25:18.044Z,81.17
2022-09-03T20:28:28.867Z,81.23
2022-09-03T20:31:10.446Z,81.36
2022-09-03T20:34:05.671Z,81.32
2022-09-03T20:37:27.177Z,81.24
2022-09-03T20:40:13.815Z,81.36
2022-09-03T20:43:07.346Z,81.01
2022-09-03T20:46:00.256Z,81.44
2022-09-03T20:49:03.866Z,81.73
2022-09-03T20:51:55.846Z,81.26
2022-09-03T20:54:54.470Z,81.11
2022-09-03T20:57:37.050Z,81.26
2022-09-03T21:00:15.270Z,80.71
2022-09-03T21:03:04.337Z,81.16
2022-09-03T21:05:34.917Z,80.90
2022-09-03T21:08:14.422Z,78.98
2022-09-03T21:10:51.253Z,78.29
2022-09-03T21:13:38.837Z,78.01
2022-09-03T21:16:37.388Z,77.16
2022-09-03T21:19:19.954Z,76.76
2022-09-03T21:22:07.085Z,76.76
2022-09-03T21:24:43.045Z,76.82
2022-09-03T21:27:20.878Z,76.52
2022-09-03T21:30:03.833Z,77.02
2022-09-03T21:32:43.969Z,76.16
2022-09-03T21:35:35.937Z,75.79
2022-09-03T21:38:15.482Z,75.02
2022-09-03T21:40:57.942Z,75.32
2022-09-03T21:43:49.449Z,74.64
2022-09-03T21:46:28.500Z,74.69
2022-09-03T21:49:02.850Z,74.43
2022-09-03T21:51:55.920Z,74.39
2022-09-03T23:27:20.593Z,76.41
2022-09-03T23:29:57.859Z,76.43
2022-09-03T23:32:33.234Z,76.70
2022-09-03T23:35:13.583Z,77.03
2022-09-03T23:37:57.051Z,76.76
2022-09-03T23:40:34.870Z,76.88
2022-09-03T23:43:12.554Z,76.54
2022-09-03T23:45:50.856Z,76.53
2022-09-03T23:48:39.361Z,77.10
2022-09-03T23:51:47.571Z,76.42
2022-09-03T23:54:40.913Z,76.15
2022-09-03T23:57:33.304Z,75.27
